createdAt,value
2018-03-22T00:00:17.337Z,16.13
2018-03-22T00:02:45.341Z,19.37
2018-03-22T00:05:13.532Z,17.97
2018-03-22T00:07:41.572Z,21.97
2018-03-22T00:10:09.593Z,19.30
2018-03-22T00:12:37.733Z,15.33
2018-03-22T00:15:05.702Z,21.07
2018-03-22T00:17:33.728Z,24.53
2018-03-22T00:20:01.706Z,19.03
2018-03-22T00:22:38.571Z,17.70
2018-03-22T00:25:07.560Z,23.07
2018-03-22T00:27:35.522Z,27.07
2018-03-22T00:30:03.427Z,24.60
2018-03-22T00:32:31.365Z,24.07
2018-03-22T00:34:59.329Z,19.60
2018-03-22T00:37:27.273Z,24.90
2018-03-22T00:39:55.230Z,26.37
2018-03-22T00:42:23.337Z,26.20
2018-03-22T00:44:51.723Z,20.47
2018-03-22T00:47:19.651Z,19.60
2018-03-22T00:49:47.611Z,22.40
2018-03-22T00:52:15.570Z,19.57
2018-03-22T00:54:43.565Z,26.57
2018-03-22T00:57:11.545Z,23.73
2018-03-22T00:59:39.544Z,22.73
2018-03-22T01:02:07.495Z,19.33
2018-03-22T01:04:35.474Z,19.00
2018-03-22T01:07:03.444Z,23.50
2018-03-22T01:09:31.421Z,20.93
2018-03-22T01:11:59.347Z,24.60
2018-03-22T01:14:27.388Z,19.17
2018-03-22T01:16:55.339Z,18.53
2018-03-22T01:19:23.329Z,22.93
2018-03-22T01:21:51.266Z,25.30
2018-03-22T01:24:19.198Z,26.20
2018-03-22T01:26:47.176Z,22.70
2018-03-22T01:29:15.102Z,21.83
2018-03-22T01:31:43.069Z,24.63
2018-03-22T01:34:11.017Z,19.90
2018-03-22T01:36:38.972Z,24.73
2018-03-22T01:39:06.898Z,23.53
2018-03-22T01:41:34.829Z,26.70
2018-03-22T01:44:02.959Z,20.80
2018-03-22T01:46:30.908Z,19.87
2018-03-22T01:48:58.874Z,21.03
2018-03-22T01:51:26.808Z,19.70
2018-03-22T01:53:54.778Z,18.53
2018-03-22T01:56:22.747Z,24.53
2018-03-22T01:58:50.634Z,18.40
2018-03-22T02:01:18.578Z,26.57
2018-03-22T02:03:46.482Z,22.87
2018-03-22T02:06:14.422Z,24.83
2018-03-22T02:08:42.361Z,19.90
2018-03-22T02:11:10.312Z,20.63
2018-03-22T02:13:38.248Z,20.83
2018-03-22T02:16:06.202Z,19.70
2018-03-22T02:18:34.130Z,18.70
2018-03-22T02:21:02.051Z,19.43
2018-03-22T02:23:29.972Z,19.90
2018-03-22T02:25:57.901Z,21.80
2018-03-22T02:28:25.827Z,20.63
2018-03-22T02:30:53.769Z,20.13
2018-03-22T02:33:21.719Z,18.10
2018-03-22T02:35:49.659Z,20.63
2018-03-22T02:38:17.583Z,19.57
2018-03-22T02:40:45.526Z,20.53
2018-03-22T02:43:13.564Z,19.67
2018-03-22T02:45:41.515Z,18.83
2018-03-22T02:48:09.431Z,20.30
2018-03-22T02:50:37.412Z,23.17
2018-03-22T02:53:05.370Z,24.27
2018-03-22T02:55:33.341Z,22.20
2018-03-22T02:58:01.288Z,16.83
2018-03-22T03:00:29.344Z,20.33
2018-03-22T03:02:57.198Z,20.47
2018-03-22T03:05:25.182Z,18.93
2018-03-22T03:07:53.158Z,23.53
2018-03-22T03:10:21.083Z,20.90
2018-03-22T03:12:49.060Z,27.47
2018-03-22T03:15:16.999Z,21.43
2018-03-22T03:17:44.982Z,24.63
2018-03-22T03:20:12.945Z,24.80
2018-03-22T03:22:40.898Z,20.57
2018-03-22T03:25:09.598Z,23.03
2018-03-22T03:27:37.560Z,22.97
2018-03-22T03:30:05.510Z,22.70
2018-03-22T03:32:33.501Z,25.50
2018-03-22T03:35:01.467Z,21.77
2018-03-22T03:37:29.348Z,21.97
2018-03-22T03:39:57.277Z,24.40
2018-03-22T03:42:25.200Z,26.17
2018-03-22T03:44:53.322Z,25.13
2018-03-22T03:47:21.243Z,29.63
2018-03-22T03:49:49.152Z,28.20
2018-03-22T03:52:17.081Z,25.40
2018-03-22T03:54:45.034Z,27.52
2018-03-22T03:57:12.966Z,26.10
2018-03-22T03:59:40.864Z,31.10
2018-03-22T04:02:08.822Z,27.73
2018-03-22T04:04:36.748Z,31.70
2018-03-22T04:07:04.716Z,26.45
2018-03-22T04:09:32.641Z,25.73
2018-03-22T04:12:00.585Z,22.57
2018-03-22T04:14:28.505Z,24.60
2018-03-22T04:16:56.522Z,27.00
2018-03-22T04:19:24.462Z,26.70
2018-03-22T04:21:52.377Z,27.13
2018-03-22T04:24:20.325Z,32.83
2018-03-22T04:26:48.329Z,28.90
2018-03-22T04:29:16.211Z,32.80
2018-03-22T04:31:44.141Z,26.33
2018-03-22T04:34:12.074Z,26.83
2018-03-22T04:36:39.992Z,25.60
2018-03-22T04:39:07.942Z,29.20
2018-03-22T04:41:35.921Z,25.67
2018-03-22T04:44:03.856Z,28.87
2018-03-22T04:46:31.855Z,31.60
2018-03-22T04:48:59.825Z,26.50
2018-03-22T04:51:27.811Z,31.55
2018-03-22T04:53:55.782Z,34.93
2018-03-22T04:56:23.732Z,29.87
2018-03-22T04:58:51.702Z,31.90
2018-03-22T05:01:19.650Z,29.37
2018-03-22T05:03:47.609Z,31.40
2018-03-22T05:06:15.534Z,30.52
2018-03-22T05:08:43.479Z,31.90
2018-03-22T05:11:11.414Z,33.90
2018-03-22T05:13:39.734Z,30.62
2018-03-22T05:16:07.859Z,34.73
2018-03-22T05:18:35.818Z,36.77
2018-03-22T05:21:03.689Z,34.20
2018-03-22T05:23:31.668Z,38.57
2018-03-22T05:25:59.641Z,33.87
2018-03-22T05:28:27.579Z,37.67
2018-03-22T05:30:55.516Z,39.07
2018-03-22T05:33:23.465Z,36.23
2018-03-22T05:35:51.487Z,44.40
2018-03-22T05:38:19.410Z,36.67
2018-03-22T05:40:47.393Z,36.17
2018-03-22T05:43:15.334Z,38.60
2018-03-22T05:45:43.266Z,40.33
2018-03-22T05:48:11.217Z,36.27
2018-03-22T05:50:39.177Z,36.07
2018-03-22T05:53:07.167Z,39.93
2018-03-22T05:55:35.105Z,34.55
2018-03-22T05:58:03.084Z,33.87
2018-03-22T06:00:31.119Z,33.20
2018-03-22T06:02:59.048Z,31.80
2018-03-22T06:05:26.990Z,40.73
2018-03-22T06:07:54.964Z,35.53
2018-03-22T06:10:22.894Z,34.17
2018-03-22T06:12:50.830Z,38.03
2018-03-22T06:15:18.769Z,31.93
2018-03-22T06:17:46.747Z,29.60
2018-03-22T06:20:14.731Z,30.17
2018-03-22T06:22:42.756Z,31.07
2018-03-22T06:25:10.703Z,32.47
2018-03-22T06:27:38.714Z,31.17
2018-03-22T06:30:06.773Z,31.00
2018-03-22T06:32:34.738Z,33.33
2018-03-22T06:35:02.693Z,33.87
2018-03-22T06:37:30.608Z,33.60
2018-03-22T06:39:58.549Z,32.70
2018-03-22T06:42:26.497Z,30.17
2018-03-22T06:44:54.441Z,34.03
2018-03-22T06:47:22.359Z,29.47
2018-03-22T06:49:50.314Z,29.23
2018-03-22T06:52:18.246Z,30.03
2018-03-22T06:54:46.183Z,29.03
2018-03-22T06:57:14.125Z,28.13
2018-03-22T06:59:42.134Z,28.23
2018-03-22T07:02:10.068Z,27.50
2018-03-22T07:04:38.014Z,25.40
2018-03-22T07:07:05.980Z,25.43
2018-03-22T07:09:33.901Z,29.17
2018-03-22T07:12:01.848Z,29.13
2018-03-22T07:14:29.763Z,24.50
2018-03-22T07:16:57.787Z,28.40
2018-03-22T07:19:25.754Z,26.70
2018-03-22T07:21:53.701Z,26.97
2018-03-22T07:24:21.640Z,28.73
2018-03-22T07:26:49.584Z,26.20
2018-03-22T07:29:17.505Z,27.97
2018-03-22T07:31:45.453Z,25.70
2018-03-22T07:34:13.411Z,27.43
2018-03-22T07:36:41.369Z,26.70
2018-03-22T07:39:09.340Z,29.47
2018-03-22T07:41:37.310Z,28.23
2018-03-22T07:44:10.787Z,25.30
2018-03-22T07:46:38.747Z,26.13
2018-03-22T07:49:06.751Z,26.47
2018-03-22T07:51:34.685Z,27.00
2018-03-22T07:54:02.653Z,30.17
2018-03-22T07:56:30.875Z,27.37
2018-03-22T07:58:58.944Z,30.20
2018-03-22T08:01:27.519Z,29.17
2018-03-22T08:03:56.614Z,31.10
2018-03-22T08:06:25.642Z,28.57
2018-03-22T08:08:53.614Z,30.70
2018-03-22T08:11:21.703Z,28.60
2018-03-22T08:13:49.687Z,29.10
2018-03-22T08:16:17.618Z,32.13
2018-03-22T08:18:45.666Z,30.93
2018-03-22T08:21:13.611Z,32.30
2018-03-22T08:23:42.536Z,32.97
2018-03-22T08:26:10.519Z,32.80
2018-03-22T08:28:38.587Z,32.83
2018-03-22T08:31:07.223Z,33.70
2018-03-22T08:33:35.180Z,31.13
2018-03-22T08:36:03.191Z,34.20
2018-03-22T08:38:31.933Z,33.67
2018-03-22T08:40:59.923Z,35.27
2018-03-22T08:43:27.883Z,37.50
2018-03-22T08:45:55.841Z,34.90
2018-03-22T08:48:23.757Z,33.10
2018-03-22T08:50:52.652Z,35.50
2018-03-22T08:53:21.053Z,35.20
2018-03-22T08:55:49.021Z,36.20
2018-03-22T08:58:16.992Z,35.03
2018-03-22T09:00:44.922Z,35.70
2018-03-22T09:03:12.905Z,32.97
2018-03-22T09:05:40.852Z,32.80
2018-03-22T09:08:08.816Z,32.87
2018-03-22T09:10:36.752Z,34.00
2018-03-22T09:13:04.778Z,34.33
2018-03-22T09:15:32.783Z,36.33
2018-03-22T09:18:00.923Z,33.60
2018-03-22T09:20:28.956Z,32.00
2018-03-22T09:22:57.387Z,38.00
2018-03-22T09:25:25.447Z,32.47
2018-03-22T09:27:53.426Z,32.97
2018-03-22T09:30:21.349Z,30.10
2018-03-22T09:32:49.277Z,32.13
2018-03-22T09:35:17.590Z,28.50
2018-03-22T09:37:45.576Z,29.20
2018-03-22T09:40:13.590Z,27.37
2018-03-22T09:42:41.596Z,27.80
2018-03-22T09:45:09.565Z,27.60
2018-03-22T09:47:37.536Z,26.73
2018-03-22T09:50:05.474Z,24.30
2018-03-22T09:52:33.413Z,24.73
2018-03-22T09:55:01.451Z,22.90
2018-03-22T09:57:29.529Z,23.60
2018-03-22T09:59:57.450Z,22.63
2018-03-22T10:02:25.533Z,22.30
2018-03-22T10:04:53.465Z,21.50
2018-03-22T10:07:21.406Z,20.73
2018-03-22T10:09:49.400Z,18.40
2018-03-22T10:12:17.378Z,16.90
2018-03-22T10:14:45.543Z,16.47
2018-03-22T10:17:13.512Z,17.03
2018-03-22T10:19:41.461Z,16.17
2018-03-22T10:22:09.581Z,18.07
2018-03-22T10:24:37.673Z,15.90
2018-03-22T10:27:05.624Z,15.80
2018-03-22T10:29:33.668Z,16.30
2018-03-22T10:32:01.681Z,16.00
2018-03-22T10:34:29.677Z,13.77
2018-03-22T10:36:57.627Z,14.47
2018-03-22T10:39:25.576Z,13.63
2018-03-22T10:41:53.518Z,14.47
2018-03-22T10:44:21.455Z,12.13
2018-03-22T10:46:49.455Z,12.50
2018-03-22T10:49:17.405Z,12.30
2018-03-22T10:51:45.333Z,11.63
2018-03-22T10:54:13.333Z,10.70
2018-03-22T10:56:41.317Z,11.93
2018-03-22T10:59:09.285Z,10.70
2018-03-22T11:04:40.134Z,9.47
2018-03-22T11:07:08.085Z,9.37
2018-03-22T11:09:36.019Z,9.60
2018-03-22T11:12:04.037Z,10.73
2018-03-22T11:14:32.055Z,10.20
2018-03-22T11:17:00.042Z,9.97
2018-03-22T11:19:28.010Z,9.63
2018-03-22T11:21:56.036Z,10.10
2018-03-22T11:24:23.972Z,9.57
2018-03-22T11:26:51.945Z,9.40
2018-03-22T11:29:19.896Z,9.07
2018-03-22T11:31:48.084Z,10.57
2018-03-22T11:34:16.712Z,8.37
2018-03-22T11:36:44.676Z,8.60
2018-03-22T11:39:12.653Z,7.83
2018-03-22T11:41:41.237Z,8.37
2018-03-22T11:44:09.172Z,8.17
2018-03-22T11:46:37.257Z,8.70
2018-03-22T11:49:05.990Z,8.80
2018-03-22T11:51:34.352Z,9.40
2018-03-22T11:54:02.254Z,8.27
2018-03-22T11:56:30.279Z,8.60
2018-03-22T11:58:58.223Z,9.13
2018-03-22T12:01:26.135Z,9.53
2018-03-22T12:03:54.301Z,9.03
2018-03-22T12:06:22.268Z,11.10
2018-03-22T12:08:50.210Z,9.77
2018-03-22T12:11:18.388Z,10.97
2018-03-22T12:13:46.345Z,14.50
2018-03-22T12:16:14.452Z,11.13
2018-03-22T12:18:42.538Z,11.30
2018-03-22T12:21:10.676Z,12.97
2018-03-22T12:23:38.644Z,11.80
2018-03-22T12:26:06.588Z,14.43
2018-03-22T12:28:34.543Z,10.80
2018-03-22T12:31:03.128Z,14.60
2018-03-22T12:33:31.462Z,14.13
2018-03-22T12:35:59.672Z,13.87
2018-03-22T12:38:27.657Z,14.10
2018-03-22T12:40:55.598Z,18.90
2018-03-22T12:43:23.662Z,12.80
2018-03-22T12:45:51.516Z,16.77
2018-03-22T12:48:19.459Z,13.37
2018-03-22T12:50:47.474Z,12.80
2018-03-22T12:53:15.490Z,16.70
2018-03-22T12:55:43.470Z,14.13
2018-03-22T12:58:11.427Z,16.40
2018-03-22T13:00:39.380Z,16.23
2018-03-22T13:03:07.341Z,16.03
2018-03-22T13:05:35.329Z,17.30
2018-03-22T13:08:03.282Z,18.67
2018-03-22T13:10:31.249Z,19.03
2018-03-22T13:12:59.216Z,21.43
2018-03-22T13:15:27.107Z,17.93
2018-03-22T13:17:55.081Z,15.87
2018-03-22T13:20:23.029Z,15.53
2018-03-22T13:22:51.100Z,19.87
2018-03-22T13:25:19.047Z,14.60
2018-03-22T13:27:47.009Z,17.13
2018-03-22T13:30:15.013Z,17.17
2018-03-22T13:32:43.157Z,18.30
2018-03-22T13:35:11.393Z,15.47
2018-03-22T13:37:39.340Z,17.67
2018-03-22T13:40:07.525Z,16.13
2018-03-22T13:42:35.553Z,24.83
2018-03-22T13:45:03.599Z,20.83
2018-03-22T13:47:31.544Z,20.10
2018-03-22T13:49:59.560Z,19.70
2018-03-22T13:52:27.539Z,19.53
2018-03-22T13:54:55.510Z,17.93
2018-03-22T13:57:23.396Z,15.23
2018-03-22T13:59:51.584Z,15.20
2018-03-22T14:02:19.489Z,11.33
2018-03-22T14:04:47.433Z,13.53
2018-03-22T14:07:15.425Z,15.23
2018-03-22T14:09:43.322Z,13.73
2018-03-22T14:12:11.383Z,11.80
2018-03-22T14:14:39.331Z,12.20
2018-03-22T14:17:07.609Z,13.53
2018-03-22T14:19:35.632Z,12.03
2018-03-22T14:22:03.550Z,9.50
2018-03-22T14:24:31.488Z,9.87
2018-03-22T14:26:59.445Z,10.80
2018-03-22T14:29:27.382Z,8.30
2018-03-22T14:31:55.364Z,8.60
2018-03-22T14:34:23.558Z,9.60
2018-03-22T14:36:51.552Z,37.90
2018-03-22T14:39:19.518Z,13.17
2018-03-22T14:41:47.478Z,37.30
2018-03-22T14:44:15.392Z,41.50
2018-03-22T14:46:43.379Z,58.00
2018-03-22T14:49:11.310Z,32.77
2018-03-22T14:51:39.337Z,25.23
2018-03-22T14:54:07.283Z,7.70
2018-03-22T14:56:35.828Z,8.97
2018-03-22T14:59:03.730Z,9.23
2018-03-22T15:01:31.723Z,7.60
2018-03-22T15:03:59.633Z,10.87
2018-03-22T15:06:27.608Z,8.30
2018-03-22T15:08:55.526Z,9.80
2018-03-22T15:11:23.478Z,11.30
2018-03-22T15:13:51.410Z,10.77
2018-03-22T15:16:19.891Z,13.40
2018-03-22T15:18:47.811Z,18.20
2018-03-22T15:21:15.721Z,76.43
2018-03-22T15:23:43.666Z,72.03
2018-03-22T15:26:11.624Z,23.97
2018-03-22T15:28:39.535Z,22.67
2018-03-22T15:31:07.606Z,45.13
2018-03-22T15:33:35.541Z,19.27
2018-03-22T15:36:03.518Z,47.77
2018-03-22T15:38:31.455Z,61.57
2018-03-22T15:40:59.566Z,45.67
2018-03-22T15:43:27.764Z,26.93
2018-03-22T15:45:55.666Z,41.27
2018-03-22T15:48:23.621Z,22.00
2018-03-22T15:50:52.397Z,33.97
2018-03-22T15:53:20.323Z,18.83
2018-03-22T15:55:48.265Z,22.67
2018-03-22T15:58:16.228Z,33.53
2018-03-22T16:00:44.140Z,33.70
2018-03-22T16:03:12.099Z,38.03
2018-03-22T16:05:40.046Z,65.97
2018-03-22T16:08:07.974Z,62.57
2018-03-22T16:10:35.884Z,28.57
2018-03-22T16:13:03.832Z,56.97
2018-03-22T16:15:31.779Z,26.97
2018-03-22T16:17:59.723Z,29.20
2018-03-22T16:20:27.673Z,55.47
2018-03-22T16:22:55.585Z,28.17
2018-03-22T16:25:23.512Z,26.33
2018-03-22T16:27:51.459Z,13.50
2018-03-22T16:30:19.391Z,15.43
2018-03-22T16:32:47.433Z,12.47
2018-03-22T16:35:15.370Z,14.40
2018-03-22T16:37:43.403Z,13.83
2018-03-22T16:40:11.310Z,13.40
2018-03-22T16:42:39.308Z,71.07
2018-03-22T16:45:07.282Z,59.77
2018-03-22T16:47:35.313Z,42.70
2018-03-22T16:50:03.252Z,34.53
2018-03-22T16:52:31.191Z,45.07
2018-03-22T16:54:59.158Z,74.37
2018-03-22T16:57:27.081Z,27.17
2018-03-22T16:59:55.054Z,57.43
2018-03-22T17:02:23.915Z,49.97
2018-03-22T17:04:51.928Z,38.40
2018-03-22T17:07:19.866Z,18.03
2018-03-22T17:09:47.801Z,17.47
2018-03-22T17:12:15.809Z,28.40
2018-03-22T17:14:43.740Z,21.23
2018-03-22T17:17:11.918Z,19.00
2018-03-22T17:19:42.381Z,16.77
2018-03-22T17:22:10.431Z,16.97
2018-03-22T17:24:38.420Z,18.13
2018-03-22T17:27:06.594Z,65.43
2018-03-22T17:29:34.526Z,19.40
2018-03-22T17:32:02.670Z,22.30
2018-03-22T17:34:30.611Z,19.20
2018-03-22T17:36:58.698Z,17.90
2018-03-22T17:39:27.052Z,17.40
2018-03-22T17:41:55.132Z,19.40
2018-03-22T17:44:23.251Z,17.67
2018-03-22T17:46:51.416Z,16.67
2018-03-22T17:49:19.424Z,18.30
2018-03-22T17:51:47.354Z,15.33
2018-03-22T17:54:15.343Z,18.33
2018-03-22T17:56:43.284Z,18.03
2018-03-22T17:59:11.333Z,16.37
2018-03-22T18:01:39.257Z,15.33
2018-03-22T18:04:07.279Z,16.93
2018-03-22T18:06:35.256Z,15.90
2018-03-22T18:09:03.190Z,14.23
2018-03-22T18:11:31.145Z,16.77
2018-03-22T18:13:59.142Z,16.90
2018-03-22T18:16:27.115Z,15.40
2018-03-22T18:18:55.045Z,18.30
2018-03-22T18:21:23.016Z,16.97
2018-03-22T18:23:51.003Z,17.70
2018-03-22T18:26:18.938Z,18.40
2018-03-22T18:28:46.886Z,20.07
2018-03-22T18:31:14.929Z,19.90
2018-03-22T18:33:42.906Z,17.77
2018-03-22T18:36:10.988Z,26.63
2018-03-22T18:38:38.980Z,22.10
2018-03-22T18:41:07.019Z,21.67
2018-03-22T18:43:35.087Z,61.03
2018-03-22T18:46:03.176Z,61.87
2018-03-22T18:48:31.374Z,71.27
2018-03-22T18:51:01.333Z,121.17
2018-03-22T18:53:29.471Z,99.40
2018-03-22T18:55:57.461Z,60.77
2018-03-22T18:58:25.449Z,85.73
2018-03-22T19:00:54.424Z,71.50
2018-03-22T19:03:23.257Z,39.57
2018-03-22T19:05:51.205Z,20.27
2018-03-22T19:08:19.305Z,37.33
2018-03-22T19:10:51.166Z,16.33
2018-03-22T19:13:19.335Z,15.17
2018-03-22T19:15:47.430Z,13.67
2018-03-22T19:18:15.638Z,13.30
2018-03-22T19:20:43.634Z,15.20
2018-03-22T19:23:11.762Z,15.73
2018-03-22T19:25:39.779Z,15.13
2018-03-22T19:28:07.844Z,13.43
2018-03-22T19:30:35.796Z,15.60
2018-03-22T19:33:03.803Z,16.63
2018-03-22T19:35:32.201Z,16.33
2018-03-22T19:38:00.293Z,13.47
2018-03-22T19:40:28.208Z,15.60
2018-03-22T19:42:56.209Z,15.40
2018-03-22T19:45:24.143Z,13.33
2018-03-22T19:47:52.182Z,15.47
2018-03-22T19:50:20.121Z,14.77
2018-03-22T19:52:49.761Z,16.30
2018-03-22T19:55:18.132Z,14.00
2018-03-22T19:57:46.307Z,15.40
2018-03-22T20:00:14.623Z,15.73
2018-03-22T20:02:43.055Z,14.63
2018-03-22T20:05:11.855Z,14.33
2018-03-22T20:07:40.882Z,15.07
2018-03-22T20:10:08.816Z,13.20
2018-03-22T20:12:38.834Z,29.77
2018-03-22T20:15:07.404Z,14.07
2018-03-22T20:17:35.475Z,14.83
2018-03-22T20:20:03.432Z,16.77
2018-03-22T20:22:31.411Z,14.60
2018-03-22T20:24:59.987Z,15.77
2018-03-22T20:27:27.924Z,15.97
2018-03-22T20:29:55.899Z,13.20
2018-03-22T20:32:23.850Z,20.07
2018-03-22T20:34:51.832Z,20.53
2018-03-22T20:37:19.760Z,39.60
2018-03-22T20:39:48.083Z,39.50
2018-03-22T20:42:16.033Z,35.80
2018-03-22T20:44:44.062Z,21.00
2018-03-22T20:47:12.003Z,15.93
2018-03-22T20:49:39.991Z,13.13
2018-03-22T20:52:07.930Z,13.40
2018-03-22T20:54:35.931Z,12.57
2018-03-22T20:57:04.164Z,13.57
2018-03-22T20:59:32.120Z,17.50
2018-03-22T21:02:00.221Z,31.33
2018-03-22T21:04:28.222Z,50.43
2018-03-22T21:06:56.172Z,89.47
2018-03-22T21:09:24.161Z,128.23
2018-03-22T21:11:52.112Z,71.63
2018-03-22T21:14:20.105Z,49.57
2018-03-22T21:16:48.070Z,22.80
2018-03-22T21:19:16.017Z,14.60
2018-03-22T21:21:43.955Z,13.83
2018-03-22T21:24:11.901Z,13.57
2018-03-22T21:26:39.867Z,12.53
2018-03-22T21:29:07.815Z,58.00
2018-03-22T21:31:35.780Z,24.57
2018-03-22T21:34:03.714Z,18.50
2018-03-22T21:36:31.628Z,12.83
2018-03-22T21:39:00.152Z,14.03
2018-03-22T21:41:28.061Z,14.10
2018-03-22T21:44:08.313Z,14.40
2018-03-22T21:46:36.268Z,14.10
2018-03-22T21:49:04.199Z,15.10
2018-03-22T21:51:32.482Z,15.00
2018-03-22T21:54:00.434Z,16.53
2018-03-22T21:56:28.369Z,17.10
2018-03-22T21:58:56.724Z,19.80
2018-03-22T22:01:29.062Z,15.47
2018-03-22T22:03:57.142Z,15.83
2018-03-22T22:06:25.979Z,16.10
2018-03-22T22:08:53.934Z,16.43
2018-03-22T22:11:22.847Z,15.70
2018-03-22T22:13:51.210Z,16.93
2018-03-22T22:16:19.234Z,16.80
2018-03-22T22:18:47.179Z,16.63
2018-03-22T22:21:15.171Z,17.87
2018-03-22T22:23:43.457Z,18.57
2018-03-22T22:26:11.482Z,17.77
2018-03-22T22:28:39.446Z,17.63
2018-03-22T22:31:07.449Z,18.00
2018-03-22T22:33:35.385Z,18.77
2018-03-22T22:36:03.337Z,17.67
2018-03-22T22:38:31.315Z,19.30
2018-03-22T22:40:59.254Z,20.17
2018-03-22T22:43:27.178Z,19.07
2018-03-22T22:45:55.106Z,23.80
2018-03-22T22:48:23.042Z,21.97
2018-03-22T22:50:51.048Z,19.40
2018-03-22T22:53:18.967Z,19.60
2018-03-22T22:55:46.936Z,18.67
2018-03-22T22:58:14.861Z,18.70
2018-03-22T23:00:42.863Z,19.07
2018-03-22T23:03:10.789Z,22.80
2018-03-22T23:05:38.723Z,23.30
2018-03-22T23:08:06.645Z,18.90
2018-03-22T23:10:34.741Z,18.27
2018-03-22T23:13:03.051Z,20.03
2018-03-22T23:15:31.094Z,19.83
2018-03-22T23:17:59.046Z,25.37
2018-03-22T23:20:26.986Z,22.00
2018-03-22T23:22:54.961Z,22.30
2018-03-22T23:25:22.909Z,21.27
2018-03-22T23:27:51.334Z,21.20
2018-03-22T23:30:19.259Z,18.70
2018-03-22T23:32:47.212Z,21.93
2018-03-22T23:35:15.157Z,20.63
2018-03-22T23:37:43.146Z,23.43
2018-03-22T23:40:11.085Z,20.27
2018-03-22T23:42:39.087Z,24.20
2018-03-22T23:45:07.087Z,22.73
2018-03-22T23:47:36.665Z,21.37
2018-03-22T23:50:04.593Z,21.80
2018-03-22T23:52:32.532Z,21.73
2018-03-22T23:55:00.502Z,23.83
2018-03-22T23:57:28.421Z,22.13
2018-03-22T23:59:56.386Z,19.60
